sensor_id;sensor_type;location;lat;lon;timestamp;temperature;humidity
19665;DHT22;9980;51.020;7.772;2022-12-26T00:00:18;14.30;99.90
19665;DHT22;9980;51.020;7.772;2022-12-26T00:02:45;14.30;99.90
19665;DHT22;9980;51.020;7.772;2022-12-26T00:05:11;14.30;99.90
19665;DHT22;9980;51.020;7.772;2022-12-26T00:07:37;14.30;99.90
19665;DHT22;9980;51.020;7.772;2022-12-26T00:10:04;14.30;99.90
19665;DHT22;9980;51.020;7.772;2022-12-26T00:12:30;14.30;99.90
19665;DHT22;9980;51.020;7.772;2022-12-26T00:14:56;14.30;99.90
19665;DHT22;9980;51.020;7.772;2022-12-26T00:17:23;14.30;99.90
19665;DHT22;9980;51.020;7.772;2022-12-26T00:19:49;14.40;99.90
19665;DHT22;9980;51.020;7.772;2022-12-26T00:22:15;14.30;99.90
19665;DHT22;9980;51.020;7.772;2022-12-26T00:24:41;14.40;99.90
19665;DHT22;9980;51.020;7.772;2022-12-26T00:27:07;14.40;99.90
19665;DHT22;9980;51.020;7.772;2022-12-26T00:29:33;14.40;99.90
19665;DHT22;9980;51.020;7.772;2022-12-26T00:32:00;14.40;99.90
19665;DHT22;9980;51.020;7.772;2022-12-26T00:34:26;14.40;99.90
19665;DHT22;9980;51.020;7.772;2022-12-26T00:36:52;14.40;99.90
19665;DHT22;9980;51.020;7.772;2022-12-26T00:39:19;14.40;99.90
19665;DHT22;9980;51.020;7.772;2022-12-26T00:41:45;14.40;99.90
19665;DHT22;9980;51.020;7.772;2022-12-26T00:44:11;14.40;99.90
19665;DHT22;9980;51.020;7.772;2022-12-26T00:46:37;14.40;99.90
19665;DHT22;9980;51.020;7.772;2022-12-26T00:49:03;14.40;99.90
19665;DHT22;9980;51.020;7.772;2022-12-26T00:51:29;14.40;99.90
19665;DHT22;9980;51.020;7.772;2022-12-26T00:53:55;14.40;99.90
19665;DHT22;9980;51.020;7.772;2022-12-26T00:56:22;14.40;99.90
19665;DHT22;9980;51.020;7.772;2022-12-26T00:58:49;14.40;99.90
19665;DHT22;9980;51.020;7.772;2022-12-26T01:01:20;14.40;99.90
19665;DHT22;9980;51.020;7.772;2022-12-26T01:03:50;14.40;99.90
19665;DHT22;9980;51.020;7.772;2022-12-26T01:06:17;14.40;99.90
19665;DHT22;9980;51.020;7.772;2022-12-26T01:08:43;14.40;99.90
19665;DHT22;9980;51.020;7.772;2022-12-26T01:11:12;14.40;99.90
19665;DHT22;9980;51.020;7.772;2022-12-26T01:13:40;14.40;99.90
19665;DHT22;9980;51.020;7.772;2022-12-26T01:16:07;14.40;99.90
19665;DHT22;9980;51.020;7.772;2022-12-26T01:18:34;14.40;99.90
19665;DHT22;9980;51.020;7.772;2022-12-26T01:21:05;14.40;99.90
19665;DHT22;9980;51.020;7.772;2022-12-26T01:23:33;14.40;99.90
19665;DHT22;9980;51.020;7.772;2022-12-26T01:25:59;14.40;99.90
19665;DHT22;9980;51.020;7.772;2022-12-26T01:28:50;14.40;99.90
19665;DHT22;9980;51.020;7.772;2022-12-26T01:31:18;14.40;99.90
19665;DHT22;9980;51.020;7.772;2022-12-26T01:33:46;14.40;99.90
19665;DHT22;9980;51.020;7.772;2022-12-26T01:36:12;14.40;99.90
19665;DHT22;9980;51.020;7.772;2022-12-26T01:38:40;14.40;99.90
19665;DHT22;9980;51.020;7.772;2022-12-26T01:41:06;14.40;99.90
19665;DHT22;9980;51.020;7.772;2022-12-26T01:46:19;14.40;99.90
19665;DHT22;9980;51.020;7.772;2022-12-26T01:52:04;14.40;99.90
19665;DHT22;9980;51.020;7.772;2022-12-26T01:54:36;14.40;99.90
19665;DHT22;9980;51.020;7.772;2022-12-26T01:57:20;14.40;99.90
19665;DHT22;9980;51.020;7.772;2022-12-26T01:59:50;14.40;99.90
19665;DHT22;9980;51.020;7.772;2022-12-26T02:02:19;14.40;99.90
19665;DHT22;9980;51.020;7.772;2022-12-26T02:04:48;14.40;99.90
19665;DHT22;9980;51.020;7.772;2022-12-26T02:07:38;14.40;99.90
19665;DHT22;9980;51.020;7.772;2022-12-26T02:10:13;14.40;99.90
19665;DHT22;9980;51.020;7.772;2022-12-26T02:12:45;14.40;99.90
19665;DHT22;9980;51.020;7.772;2022-12-26T02:15:15;14.40;99.90
19665;DHT22;9980;51.020;7.772;2022-12-26T02:17:45;14.40;99.90
19665;DHT22;9980;51.020;7.772;2022-12-26T02:20:28;14.40;99.90
19665;DHT22;9980;51.020;7.772;2022-12-26T02:29:31;14.40;99.90
19665;DHT22;9980;51.020;7.772;2022-12-26T02:32:53;14.40;99.90
19665;DHT22;9980;51.020;7.772;2022-12-26T02:35:54;14.40;99.90
19665;DHT22;9980;51.020;7.772;2022-12-26T02:38:52;14.40;99.90
19665;DHT22;9980;51.020;7.772;2022-12-26T02:47:45;14.40;99.90
19665;DHT22;9980;51.020;7.772;2022-12-26T02:53:53;14.40;99.90
19665;DHT22;9980;51.020;7.772;2022-12-26T02:57:03;14.30;99.90
19665;DHT22;9980;51.020;7.772;2022-12-26T02:59:58;14.30;99.90
19665;DHT22;9980;51.020;7.772;2022-12-26T03:02:54;14.30;99.90
19665;DHT22;9980;51.020;7.772;2022-12-26T03:05:49;14.30;99.90
19665;DHT22;9980;51.020;7.772;2022-12-26T03:08:50;14.30;99.90
19665;DHT22;9980;51.020;7.772;2022-12-26T03:11:40;14.30;99.90
19665;DHT22;9980;51.020;7.772;2022-12-26T03:14:34;14.30;99.90
19665;DHT22;9980;51.020;7.772;2022-12-26T03:17:38;14.30;99.90
19665;DHT22;9980;51.020;7.772;2022-12-26T03:20:27;14.30;99.90
19665;DHT22;9980;51.020;7.772;2022-12-26T03:23:05;14.20;99.90
19665;DHT22;9980;51.020;7.772;2022-12-26T03:28:20;14.20;99.90
19665;DHT22;9980;51.020;7.772;2022-12-26T03:30:47;14.20;99.90
19665;DHT22;9980;51.020;7.772;2022-12-26T03:33:19;14.20;99.90
19665;DHT22;9980;51.020;7.772;2022-12-26T03:36:10;14.20;99.90
19665;DHT22;9980;51.020;7.772;2022-12-26T03:38:53;14.30;99.90
19665;DHT22;9980;51.020;7.772;2022-12-26T03:41:58;14.20;99.90
19665;DHT22;9980;51.020;7.772;2022-12-26T03:45:34;14.20;99.90
19665;DHT22;9980;51.020;7.772;2022-12-26T03:48:32;14.20;99.90
19665;DHT22;9980;51.020;7.772;2022-12-26T03:51:35;14.20;99.90
19665;DHT22;9980;51.020;7.772;2022-12-26T03:54:32;14.20;99.90
19665;DHT22;9980;51.020;7.772;2022-12-26T03:57:23;14.20;99.90
19665;DHT22;9980;51.020;7.772;2022-12-26T04:00:15;14.20;99.90
19665;DHT22;9980;51.020;7.772;2022-12-26T04:03:05;14.20;99.90
19665;DHT22;9980;51.020;7.772;2022-12-26T04:05:55;14.10;99.90
19665;DHT22;9980;51.020;7.772;2022-12-26T04:09:11;14.10;99.90
19665;DHT22;9980;51.020;7.772;2022-12-26T04:12:00;14.10;99.90
19665;DHT22;9980;51.020;7.772;2022-12-26T04:14:54;14.10;99.90
19665;DHT22;9980;51.020;7.772;2022-12-26T04:17:57;14.10;99.90
19665;DHT22;9980;51.020;7.772;2022-12-26T04:20:56;14.10;99.90
19665;DHT22;9980;51.020;7.772;2022-12-26T04:24:02;14.10;99.90
19665;DHT22;9980;51.020;7.772;2022-12-26T04:26:56;14.00;99.90
19665;DHT22;9980;51.020;7.772;2022-12-26T04:29:45;14.00;99.90
19665;DHT22;9980;51.020;7.772;2022-12-26T04:32:46;14.00;99.90
19665;DHT22;9980;51.020;7.772;2022-12-26T04:35:51;14.00;99.90
19665;DHT22;9980;51.020;7.772;2022-12-26T04:38:47;14.00;99.90
19665;DHT22;9980;51.020;7.772;2022-12-26T04:41:38;14.00;99.90
19665;DHT22;9980;51.020;7.772;2022-12-26T04:44:23;13.90;99.90
19665;DHT22;9980;51.020;7.772;2022-12-26T04:46:52;13.90;99.90
19665;DHT22;9980;51.020;7.772;2022-12-26T04:49:20;13.90;99.90
19665;DHT22;9980;51.020;7.772;2022-12-26T04:52:08;13.90;99.90
19665;DHT22;9980;51.020;7.772;2022-12-26T04:54:36;13.90;99.90
19665;DHT22;9980;51.020;7.772;2022-12-26T04:57:03;13.90;99.90
19665;DHT22;9980;51.020;7.772;2022-12-26T04:59:30;13.90;99.90
19665;DHT22;9980;51.020;7.772;2022-12-26T05:01:57;13.80;99.90
19665;DHT22;9980;51.020;7.772;2022-12-26T05:04:42;13.90;99.90
19665;DHT22;9980;51.020;7.772;2022-12-26T05:07:33;13.90;99.90
19665;DHT22;9980;51.020;7.772;2022-12-26T05:10:25;13.80;99.90
19665;DHT22;9980;51.020;7.772;2022-12-26T05:12:53;13.80;99.90
19665;DHT22;9980;51.020;7.772;2022-12-26T05:15:20;13.80;99.90
19665;DHT22;9980;51.020;7.772;2022-12-26T05:17:46;13.80;99.90
19665;DHT22;9980;51.020;7.772;2022-12-26T05:20:31;13.80;99.90
19665;DHT22;9980;51.020;7.772;2022-12-26T05:23:20;13.80;99.90
19665;DHT22;9980;51.020;7.772;2022-12-26T05:26:16;13.80;99.90
19665;DHT22;9980;51.020;7.772;2022-12-26T05:29:03;13.80;99.90
19665;DHT22;9980;51.020;7.772;2022-12-26T05:31:30;13.80;99.90
19665;DHT22;9980;51.020;7.772;2022-12-26T05:34:03;13.80;99.90
19665;DHT22;9980;51.020;7.772;2022-12-26T05:36:41;13.70;99.90
19665;DHT22;9980;51.020;7.772;2022-12-26T05:39:12;13.80;99.90
19665;DHT22;9980;51.020;7.772;2022-12-26T05:41:39;13.70;99.90
19665;DHT22;9980;51.020;7.772;2022-12-26T05:44:06;13.70;99.90
19665;DHT22;9980;51.020;7.772;2022-12-26T05:46:34;13.70;99.90
19665;DHT22;9980;51.020;7.772;2022-12-26T05:49:02;13.70;99.90
19665;DHT22;9980;51.020;7.772;2022-12-26T05:51:29;13.70;99.90
19665;DHT22;9980;51.020;7.772;2022-12-26T05:53:56;13.70;99.90
19665;DHT22;9980;51.020;7.772;2022-12-26T05:56:22;13.70;99.90
19665;DHT22;9980;51.020;7.772;2022-12-26T05:58:57;13.70;99.90
19665;DHT22;9980;51.020;7.772;2022-12-26T06:01:25;13.70;99.90
19665;DHT22;9980;51.020;7.772;2022-12-26T06:03:55;13.60;99.90
19665;DHT22;9980;51.020;7.772;2022-12-26T06:06:23;13.70;99.90
19665;DHT22;9980;51.020;7.772;2022-12-26T06:08:52;13.60;99.90
19665;DHT22;9980;51.020;7.772;2022-12-26T06:11:19;13.60;99.90
19665;DHT22;9980;51.020;7.772;2022-12-26T06:13:46;13.60;99.90
19665;DHT22;9980;51.020;7.772;2022-12-26T06:16:15;13.60;99.90
19665;DHT22;9980;51.020;7.772;2022-12-26T06:18:42;13.60;99.90
19665;DHT22;9980;51.020;7.772;2022-12-26T06:21:12;13.60;99.90
19665;DHT22;9980;51.020;7.772;2022-12-26T06:23:40;13.60;99.90
19665;DHT22;9980;51.020;7.772;2022-12-26T06:26:07;13.60;99.90
19665;DHT22;9980;51.020;7.772;2022-12-26T06:28:35;13.60;99.90
19665;DHT22;9980;51.020;7.772;2022-12-26T06:31:20;13.60;99.90
19665;DHT22;9980;51.020;7.772;2022-12-26T06:33:48;13.50;99.90
19665;DHT22;9980;51.020;7.772;2022-12-26T06:36:18;13.50;99.90
19665;DHT22;9980;51.020;7.772;2022-12-26T06:38:46;13.50;99.90
19665;DHT22;9980;51.020;7.772;2022-12-26T06:41:14;13.50;99.90
19665;DHT22;9980;51.020;7.772;2022-12-26T06:43:42;13.50;99.90
19665;DHT22;9980;51.020;7.772;2022-12-26T06:46:12;13.40;99.90
19665;DHT22;9980;51.020;7.772;2022-12-26T06:48:40;13.50;99.90
19665;DHT22;9980;51.020;7.772;2022-12-26T06:51:14;13.40;99.90
19665;DHT22;9980;51.020;7.772;2022-12-26T06:53:42;13.40;99.90
19665;DHT22;9980;51.020;7.772;2022-12-26T06:56:12;13.40;99.90
19665;DHT22;9980;51.020;7.772;2022-12-26T06:58:39;13.30;99.90
19665;DHT22;9980;51.020;7.772;2022-12-26T07:01:14;13.30;99.90
19665;DHT22;9980;51.020;7.772;2022-12-26T07:03:43;13.30;99.90
19665;DHT22;9980;51.020;7.772;2022-12-26T07:06:26;13.20;99.90
19665;DHT22;9980;51.020;7.772;2022-12-26T07:09:05;13.20;99.90
19665;DHT22;9980;51.020;7.772;2022-12-26T07:11:36;13.20;99.90
19665;DHT22;9980;51.020;7.772;2022-12-26T07:14:04;13.10;99.90
19665;DHT22;9980;51.020;7.772;2022-12-26T07:16:33;13.10;99.90
19665;DHT22;9980;51.020;7.772;2022-12-26T07:19:00;13.10;99.90
19665;DHT22;9980;51.020;7.772;2022-12-26T07:21:27;13.10;99.90
19665;DHT22;9980;51.020;7.772;2022-12-26T07:23:54;13.00;99.90
19665;DHT22;9980;51.020;7.772;2022-12-26T07:26:21;13.00;99.90
19665;DHT22;9980;51.020;7.772;2022-12-26T07:28:56;13.00;99.90
19665;DHT22;9980;51.020;7.772;2022-12-26T07:31:24;13.00;99.90
19665;DHT22;9980;51.020;7.772;2022-12-26T07:33:54;13.00;99.90
19665;DHT22;9980;51.020;7.772;2022-12-26T07:36:21;12.90;99.90
19665;DHT22;9980;51.020;7.772;2022-12-26T07:38:49;12.90;99.90
19665;DHT22;9980;51.020;7.772;2022-12-26T07:41:16;12.90;99.90
19665;DHT22;9980;51.020;7.772;2022-12-26T07:44:00;12.90;99.90
19665;DHT22;9980;51.020;7.772;2022-12-26T07:46:26;12.90;99.90
19665;DHT22;9980;51.020;7.772;2022-12-26T07:48:53;12.80;99.90
19665;DHT22;9980;51.020;7.772;2022-12-26T07:51:20;12.80;99.90
19665;DHT22;9980;51.020;7.772;2022-12-26T07:53:46;12.80;99.90
19665;DHT22;9980;51.020;7.772;2022-12-26T07:56:13;12.80;99.90
19665;DHT22;9980;51.020;7.772;2022-12-26T07:58:39;12.80;99.90
19665;DHT22;9980;51.020;7.772;2022-12-26T08:01:06;12.80;99.90
19665;DHT22;9980;51.020;7.772;2022-12-26T08:03:33;12.80;99.90
19665;DHT22;9980;51.020;7.772;2022-12-26T08:06:00;12.80;99.90
19665;DHT22;9980;51.020;7.772;2022-12-26T08:08:27;12.80;99.90
19665;DHT22;9980;51.020;7.772;2022-12-26T08:11:07;12.80;99.90
19665;DHT22;9980;51.020;7.772;2022-12-26T08:13:34;12.80;99.90
19665;DHT22;9980;51.020;7.772;2022-12-26T08:16:07;12.80;99.90
19665;DHT22;9980;51.020;7.772;2022-12-26T08:18:35;12.80;99.90
19665;DHT22;9980;51.020;7.772;2022-12-26T08:21:01;12.70;99.90
19665;DHT22;9980;51.020;7.772;2022-12-26T08:23:28;12.80;99.90
19665;DHT22;9980;51.020;7.772;2022-12-26T08:25:55;12.70;99.90
19665;DHT22;9980;51.020;7.772;2022-12-26T08:28:21;12.70;99.90
19665;DHT22;9980;51.020;7.772;2022-12-26T08:30:48;12.80;99.90
19665;DHT22;9980;51.020;7.772;2022-12-26T08:33:15;12.70;99.90
19665;DHT22;9980;51.020;7.772;2022-12-26T08:35:41;12.80;99.90
19665;DHT22;9980;51.020;7.772;2022-12-26T08:38:07;12.80;99.90
19665;DHT22;9980;51.020;7.772;2022-12-26T08:40:34;12.80;99.90
19665;DHT22;9980;51.020;7.772;2022-12-26T08:43:10;12.80;99.90
19665;DHT22;9980;51.020;7.772;2022-12-26T08:46:00;12.80;99.90
19665;DHT22;9980;51.020;7.772;2022-12-26T08:48:29;12.80;99.90
19665;DHT22;9980;51.020;7.772;2022-12-26T08:51:02;12.80;99.90
19665;DHT22;9980;51.020;7.772;2022-12-26T08:53:35;12.80;99.90
19665;DHT22;9980;51.020;7.772;2022-12-26T08:56:03;12.80;99.90
19665;DHT22;9980;51.020;7.772;2022-12-26T08:58:32;12.80;99.90
19665;DHT22;9980;51.020;7.772;2022-12-26T09:01:11;12.90;99.90
19665;DHT22;9980;51.020;7.772;2022-12-26T09:03:40;12.90;99.90
19665;DHT22;9980;51.020;7.772;2022-12-26T09:06:07;12.90;99.90
19665;DHT22;9980;51.020;7.772;2022-12-26T09:08:35;12.90;99.90
19665;DHT22;9980;51.020;7.772;2022-12-26T09:11:04;12.90;99.90
19665;DHT22;9980;51.020;7.772;2022-12-26T09:13:33;13.00;99.90
19665;DHT22;9980;51.020;7.772;2022-12-26T09:16:12;13.00;99.90
19665;DHT22;9980;51.020;7.772;2022-12-26T09:18:44;13.00;99.90
19665;DHT22;9980;51.020;7.772;2022-12-26T09:21:13;13.00;99.90
19665;DHT22;9980;51.020;7.772;2022-12-26T09:23:41;13.10;99.90
19665;DHT22;9980;51.020;7.772;2022-12-26T09:26:13;13.10;99.90
19665;DHT22;9980;51.020;7.772;2022-12-26T09:28:44;13.10;99.90
19665;DHT22;9980;51.020;7.772;2022-12-26T09:31:15;13.10;99.90
19665;DHT22;9980;51.020;7.772;2022-12-26T09:33:43;13.10;99.90
19665;DHT22;9980;51.020;7.772;2022-12-26T09:36:14;13.20;99.90
19665;DHT22;9980;51.020;7.772;2022-12-26T09:38:46;13.20;99.90
19665;DHT22;9980;51.020;7.772;2022-12-26T09:46:54;13.20;99.90
19665;DHT22;9980;51.020;7.772;2022-12-26T09:49:36;13.30;99.90
19665;DHT22;9980;51.020;7.772;2022-12-26T09:52:14;13.30;99.90
19665;DHT22;9980;51.020;7.772;2022-12-26T09:54:58;13.30;99.90
19665;DHT22;9980;51.020;7.772;2022-12-26T09:57:39;13.30;99.90
19665;DHT22;9980;51.020;7.772;2022-12-26T10:00:19;13.30;99.90
19665;DHT22;9980;51.020;7.772;2022-12-26T10:02:52;13.40;99.90
19665;DHT22;9980;51.020;7.772;2022-12-26T10:05:32;13.40;99.90
19665;DHT22;9980;51.020;7.772;2022-12-26T10:11:40;13.40;99.90
19665;DHT22;9980;51.020;7.772;2022-12-26T10:14:47;13.40;99.90
19665;DHT22;9980;51.020;7.772;2022-12-26T10:17:41;13.40;99.90
19665;DHT22;9980;51.020;7.772;2022-12-26T10:20:24;13.40;99.90
19665;DHT22;9980;51.020;7.772;2022-12-26T10:31:05;13.50;99.90
19665;DHT22;9980;51.020;7.772;2022-12-26T10:33:46;13.50;99.90
19665;DHT22;9980;51.020;7.772;2022-12-26T10:36:28;13.50;99.90
19665;DHT22;9980;51.020;7.772;2022-12-26T10:38:59;13.50;99.90
19665;DHT22;9980;51.020;7.772;2022-12-26T10:41:41;13.50;99.90
19665;DHT22;9980;51.020;7.772;2022-12-26T10:44:12;13.50;99.90
19665;DHT22;9980;51.020;7.772;2022-12-26T10:49:45;13.60;99.90
19665;DHT22;9980;51.020;7.772;2022-12-26T10:52:13;13.60;99.90
19665;DHT22;9980;51.020;7.772;2022-12-26T10:54:53;13.60;99.90
19665;DHT22;9980;51.020;7.772;2022-12-26T10:57:42;13.60;99.90
19665;DHT22;9980;51.020;7.772;2022-12-26T11:00:19;13.70;99.90
19665;DHT22;9980;51.020;7.772;2022-12-26T11:03:06;13.70;99.90
19665;DHT22;9980;51.020;7.772;2022-12-26T11:05:43;13.70;99.90
19665;DHT22;9980;51.020;7.772;2022-12-26T11:08:58;13.70;99.90
19665;DHT22;9980;51.020;7.772;2022-12-26T11:11:28;13.80;99.90
19665;DHT22;9980;51.020;7.772;2022-12-26T11:14:46;13.80;99.90
19665;DHT22;9980;51.020;7.772;2022-12-26T11:17:33;13.80;99.90
19665;DHT22;9980;51.020;7.772;2022-12-26T11:22:43;13.80;99.90
19665;DHT22;9980;51.020;7.772;2022-12-26T11:25:25;13.80;99.90
19665;DHT22;9980;51.020;7.772;2022-12-26T11:27:57;13.80;99.90
19665;DHT22;9980;51.020;7.772;2022-12-26T11:30:29;13.80;99.90
19665;DHT22;9980;51.020;7.772;2022-12-26T11:33:10;13.80;99.90
19665;DHT22;9980;51.020;7.772;2022-12-26T11:36:02;13.80;99.90
19665;DHT22;9980;51.020;7.772;2022-12-26T11:38:30;13.80;99.90
19665;DHT22;9980;51.020;7.772;2022-12-26T11:41:14;13.70;99.90
19665;DHT22;9980;51.020;7.772;2022-12-26T11:46:52;13.70;99.90
19665;DHT22;9980;51.020;7.772;2022-12-26T11:52:47;13.70;99.90
19665;DHT22;9980;51.020;7.772;2022-12-26T12:00:36;13.70;99.90
19665;DHT22;9980;51.020;7.772;2022-12-26T12:03:10;13.70;99.90
19665;DHT22;9980;51.020;7.772;2022-12-26T12:20:16;13.70;99.90
19665;DHT22;9980;51.020;7.772;2022-12-26T12:26:11;13.70;99.90
19665;DHT22;9980;51.020;7.772;2022-12-26T12:29:05;13.60;99.90
19665;DHT22;9980;51.020;7.772;2022-12-26T12:31:55;13.60;99.90
19665;DHT22;9980;51.020;7.772;2022-12-26T12:34:50;13.70;99.90
19665;DHT22;9980;51.020;7.772;2022-12-26T12:37:43;13.60;99.90
19665;DHT22;9980;51.020;7.772;2022-12-26T12:43:23;13.60;99.90
19665;DHT22;9980;51.020;7.772;2022-12-26T12:46:26;13.60;99.90
19665;DHT22;9980;51.020;7.772;2022-12-26T12:58:19;13.60;99.90
19665;DHT22;9980;51.020;7.772;2022-12-26T13:01:16;13.60;99.90
19665;DHT22;9980;51.020;7.772;2022-12-26T13:06:38;13.60;99.90
19665;DHT22;9980;51.020;7.772;2022-12-26T13:09:25;13.60;99.90
19665;DHT22;9980;51.020;7.772;2022-12-26T13:12:10;13.60;99.90
19665;DHT22;9980;51.020;7.772;2022-12-26T13:14:48;13.50;99.90
19665;DHT22;9980;51.020;7.772;2022-12-26T13:17:26;13.50;99.90
19665;DHT22;9980;51.020;7.772;2022-12-26T13:20:05;13.50;99.90
19665;DHT22;9980;51.020;7.772;2022-12-26T13:22:43;13.50;99.90
19665;DHT22;9980;51.020;7.772;2022-12-26T13:26:13;13.50;99.90
19665;DHT22;9980;51.020;7.772;2022-12-26T13:28:56;13.40;99.90
19665;DHT22;9980;51.020;7.772;2022-12-26T13:31:32;13.40;99.90
19665;DHT22;9980;51.020;7.772;2022-12-26T13:34:00;13.30;99.90
19665;DHT22;9980;51.020;7.772;2022-12-26T13:41:50;13.20;99.90
19665;DHT22;9980;51.020;7.772;2022-12-26T13:44:38;13.20;99.90
19665;DHT22;9980;51.020;7.772;2022-12-26T13:50:44;13.00;99.90
19665;DHT22;9980;51.020;7.772;2022-12-26T13:55:55;13.00;99.90
19665;DHT22;9980;51.020;7.772;2022-12-26T13:58:54;12.90;99.90
19665;DHT22;9980;51.020;7.772;2022-12-26T14:01:53;12.80;99.90
19665;DHT22;9980;51.020;7.772;2022-12-26T14:04:40;12.80;99.90
19665;DHT22;9980;51.020;7.772;2022-12-26T14:07:41;12.80;99.90
19665;DHT22;9980;51.020;7.772;2022-12-26T14:13:40;12.80;99.90
19665;DHT22;9980;51.020;7.772;2022-12-26T14:20:01;12.80;99.90
19665;DHT22;9980;51.020;7.772;2022-12-26T14:23:13;12.70;99.90
19665;DHT22;9980;51.020;7.772;2022-12-26T14:26:20;12.70;99.90
19665;DHT22;9980;51.020;7.772;2022-12-26T14:29:04;12.70;99.90
19665;DHT22;9980;51.020;7.772;2022-12-26T14:35:22;12.70;99.90
19665;DHT22;9980;51.020;7.772;2022-12-26T14:41:14;12.60;99.90
19665;DHT22;9980;51.020;7.772;2022-12-26T14:46:58;12.50;99.90
19665;DHT22;9980;51.020;7.772;2022-12-26T14:52:32;12.40;99.90
19665;DHT22;9980;51.020;7.772;2022-12-26T14:55:38;12.40;99.90
19665;DHT22;9980;51.020;7.772;2022-12-26T14:58:36;12.40;99.90
19665;DHT22;9980;51.020;7.772;2022-12-26T15:31:18;12.00;99.90
19665;DHT22;9980;51.020;7.772;2022-12-26T15:37:02;11.90;99.90
19665;DHT22;9980;51.020;7.772;2022-12-26T15:42:32;11.80;99.90
19665;DHT22;9980;51.020;7.772;2022-12-26T15:48:35;11.80;99.90
19665;DHT22;9980;51.020;7.772;2022-12-26T15:51:34;11.80;99.90
19665;DHT22;9980;51.020;7.772;2022-12-26T16:05:10;11.60;99.90
19665;DHT22;9980;51.020;7.772;2022-12-26T16:11:14;11.60;99.90
19665;DHT22;9980;51.020;7.772;2022-12-26T16:13:57;11.50;99.90
19665;DHT22;9980;51.020;7.772;2022-12-26T16:16:34;11.50;99.90
19665;DHT22;9980;51.020;7.772;2022-12-26T16:19:20;11.40;99.90
19665;DHT22;9980;51.020;7.772;2022-12-26T16:21:58;11.40;99.90
19665;DHT22;9980;51.020;7.772;2022-12-26T16:24:46;11.30;99.90
19665;DHT22;9980;51.020;7.772;2022-12-26T16:27:19;11.30;99.90
19665;DHT22;9980;51.020;7.772;2022-12-26T16:29:49;11.30;99.90
19665;DHT22;9980;51.020;7.772;2022-12-26T16:32:22;11.20;99.90
19665;DHT22;9980;51.020;7.772;2022-12-26T16:34:55;11.20;99.90
19665;DHT22;9980;51.020;7.772;2022-12-26T16:37:24;11.10;99.90
19665;DHT22;9980;51.020;7.772;2022-12-26T16:42:36;11.10;99.90
19665;DHT22;9980;51.020;7.772;2022-12-26T16:45:03;11.10;99.90
19665;DHT22;9980;51.020;7.772;2022-12-26T16:47:31;11.00;99.90
19665;DHT22;9980;51.020;7.772;2022-12-26T16:49:58;11.00;99.90
19665;DHT22;9980;51.020;7.772;2022-12-26T16:52:37;11.00;99.90
19665;DHT22;9980;51.020;7.772;2022-12-26T16:56:12;10.90;99.90
19665;DHT22;9980;51.020;7.772;2022-12-26T16:58:24;10.90;99.90
19665;DHT22;9980;51.020;7.772;2022-12-26T17:03:50;10.80;99.90
19665;DHT22;9980;51.020;7.772;2022-12-26T17:06:44;10.80;99.90
19665;DHT22;9980;51.020;7.772;2022-12-26T17:09:15;10.80;99.90
19665;DHT22;9980;51.020;7.772;2022-12-26T17:12:03;10.80;99.90
19665;DHT22;9980;51.020;7.772;2022-12-26T17:14:35;10.70;99.90
19665;DHT22;9980;51.020;7.772;2022-12-26T17:19:50;10.60;99.90
19665;DHT22;9980;51.020;7.772;2022-12-26T17:22:33;10.60;99.90
19665;DHT22;9980;51.020;7.772;2022-12-26T17:27:44;10.40;99.90
19665;DHT22;9980;51.020;7.772;2022-12-26T17:30:30;10.40;99.90
19665;DHT22;9980;51.020;7.772;2022-12-26T17:33:23;10.40;99.90
19665;DHT22;9980;51.020;7.772;2022-12-26T17:35:57;10.30;99.90
19665;DHT22;9980;51.020;7.772;2022-12-26T17:38:47;10.40;99.90
19665;DHT22;9980;51.020;7.772;2022-12-26T17:41:15;10.30;99.90
19665;DHT22;9980;51.020;7.772;2022-12-26T17:43:44;10.30;99.90
19665;DHT22;9980;51.020;7.772;2022-12-26T17:46:14;10.20;99.90
19665;DHT22;9980;51.020;7.772;2022-12-26T17:48:43;10.20;99.90
19665;DHT22;9980;51.020;7.772;2022-12-26T17:51:15;10.20;99.90
19665;DHT22;9980;51.020;7.772;2022-12-26T17:53:49;10.20;99.90
19665;DHT22;9980;51.020;7.772;2022-12-26T17:56:21;10.10;99.90
19665;DHT22;9980;51.020;7.772;2022-12-26T17:58:50;10.10;99.90
19665;DHT22;9980;51.020;7.772;2022-12-26T18:01:16;10.10;99.90
19665;DHT22;9980;51.020;7.772;2022-12-26T18:03:47;10.00;99.90
19665;DHT22;9980;51.020;7.772;2022-12-26T18:06:15;10.00;99.90
19665;DHT22;9980;51.020;7.772;2022-12-26T18:08:43;10.00;99.90
19665;DHT22;9980;51.020;7.772;2022-12-26T18:11:11;9.90;99.90
19665;DHT22;9980;51.020;7.772;2022-12-26T18:13:39;9.90;99.90
19665;DHT22;9980;51.020;7.772;2022-12-26T18:16:06;9.90;99.90
19665;DHT22;9980;51.020;7.772;2022-12-26T18:18:38;9.80;99.90
19665;DHT22;9980;51.020;7.772;2022-12-26T18:21:07;9.80;99.90
19665;DHT22;9980;51.020;7.772;2022-12-26T18:23:36;9.80;99.90
19665;DHT22;9980;51.020;7.772;2022-12-26T18:26:25;9.80;99.90
19665;DHT22;9980;51.020;7.772;2022-12-26T18:28:53;9.70;99.90
19665;DHT22;9980;51.020;7.772;2022-12-26T18:31:20;9.70;99.90
19665;DHT22;9980;51.020;7.772;2022-12-26T18:33:46;9.70;99.90
19665;DHT22;9980;51.020;7.772;2022-12-26T18:36:14;9.60;99.90
19665;DHT22;9980;51.020;7.772;2022-12-26T18:38:42;9.60;99.90
19665;DHT22;9980;51.020;7.772;2022-12-26T18:41:13;9.60;99.90
19665;DHT22;9980;51.020;7.772;2022-12-26T18:43:41;9.50;99.90
19665;DHT22;9980;51.020;7.772;2022-12-26T18:46:18;9.50;99.90
19665;DHT22;9980;51.020;7.772;2022-12-26T18:48:46;9.40;99.90
19665;DHT22;9980;51.020;7.772;2022-12-26T18:51:13;9.40;99.90
19665;DHT22;9980;51.020;7.772;2022-12-26T18:53:40;9.30;99.90
19665;DHT22;9980;51.020;7.772;2022-12-26T18:56:09;9.30;99.90
19665;DHT22;9980;51.020;7.772;2022-12-26T18:58:38;9.30;99.90
19665;DHT22;9980;51.020;7.772;2022-12-26T19:01:04;9.20;99.90
19665;DHT22;9980;51.020;7.772;2022-12-26T19:03:31;9.20;99.90
19665;DHT22;9980;51.020;7.772;2022-12-26T19:05:57;9.10;99.90
19665;DHT22;9980;51.020;7.772;2022-12-26T19:08:24;9.10;99.90
19665;DHT22;9980;51.020;7.772;2022-12-26T19:10:50;9.00;99.90
19665;DHT22;9980;51.020;7.772;2022-12-26T19:13:16;8.90;99.90
19665;DHT22;9980;51.020;7.772;2022-12-26T19:15:44;8.80;99.90
19665;DHT22;9980;51.020;7.772;2022-12-26T19:18:12;8.80;99.90
19665;DHT22;9980;51.020;7.772;2022-12-26T19:20:38;8.70;99.90
19665;DHT22;9980;51.020;7.772;2022-12-26T19:23:10;8.60;99.90
19665;DHT22;9980;51.020;7.772;2022-12-26T19:25:36;8.60;99.90
19665;DHT22;9980;51.020;7.772;2022-12-26T19:28:03;8.50;99.90
19665;DHT22;9980;51.020;7.772;2022-12-26T19:30:29;8.40;99.90
19665;DHT22;9980;51.020;7.772;2022-12-26T19:33:03;8.30;99.90
19665;DHT22;9980;51.020;7.772;2022-12-26T19:35:30;8.30;99.90
19665;DHT22;9980;51.020;7.772;2022-12-26T19:37:56;8.20;99.90
19665;DHT22;9980;51.020;7.772;2022-12-26T19:40:23;8.10;99.90
19665;DHT22;9980;51.020;7.772;2022-12-26T19:42:51;8.10;99.90
19665;DHT22;9980;51.020;7.772;2022-12-26T19:45:18;8.00;99.90
19665;DHT22;9980;51.020;7.772;2022-12-26T19:47:44;7.90;99.90
19665;DHT22;9980;51.020;7.772;2022-12-26T19:50:10;7.90;99.90
19665;DHT22;9980;51.020;7.772;2022-12-26T19:52:37;7.80;99.90